Pa-li-ne — WDJ5991 — position and weather

sailwx.info

Track history (hours):
 
Tides and Currents Weather Stations Pressure Air Temp Water Temp Dewpoint Dewpoint Depression Visibility Wind Speed Wind Dir Waves Ship Positions

Pa-li-ne

Owner: Pa-Li-Ne LLC, norcross, GA. More information available from US FCC via Universal Licensing System and Coast Guard Vessel Documentation Center.

Last reported at 2017-Sep-28 11:51 UTC. Time now 2017-Oct-17 05:54 UTC.
Position N 31°54' W 080°39'.
Warning: this ship's position is 18 days out of date.

Length 29 m.

Type: Pleasure craft. MMSI: 338444000.

Date/timePositionNaut miles runAvg speedWind from/ knotsBaromVisibWave heightAir tempDewpointWater temp
2017-Sep-28 11:51N 31°54' W 080°39'513.2
2017-Sep-28 11:29N 31°57' W 080°43'613.4
2017-Sep-28 11:00N 32°02' W 080°49'6 1.2
2017-Sep-28 05:43N 32°08' W 080°49'0 0.0
2017-Sep-28 04:07N 32°08' W 080°49'0 0.0
2017-Sep-28 03:43N 32°08' W 080°49'0 0.0
2017-Sep-28 03:25N 32°08' W 080°49'0 0.0
2017-Sep-28 02:43N 32°08' W 080°49'  
2017-Sep-21 15:22N 32°09' W 080°51'7 7.8
2017-Sep-21 14:30N 32°05' W 080°57'4 8.5
2017-Sep-21 14:00N 32°04' W 081°02'2 4.7
2017-Sep-21 13:29N 32°01' W 081°03'0 0.0
2017-Sep-21 12:59N 32°01' W 081°03'0 0.0
2017-Sep-21 12:29N 32°01' W 081°03'0 0.0
2017-Sep-21 11:59N 32°01' W 081°03'0 0.0
2017-Sep-21 11:29N 32°01' W 081°03'0 0.0
2017-Sep-21 10:41N 32°01' W 081°03'0 0.0
2017-Sep-21 10:29N 32°01' W 081°03'0 0.0
2017-Sep-21 09:59N 32°01' W 081°03'0 0.0
2017-Sep-21 09:29N 32°01' W 081°03'0 0.0
2017-Sep-21 08:59N 32°01' W 081°03'0 0.0
2017-Sep-21 08:29N 32°01' W 081°03'0 0.0
2017-Sep-21 07:59N 32°01' W 081°03'0 0.0
2017-Sep-21 07:29N 32°01' W 081°03'0 0.0
2017-Sep-21 06:47N 32°01' W 081°03'0 0.0
2017-Sep-21 06:17N 32°01' W 081°03'0 0.0
2017-Sep-21 05:59N 32°01' W 081°03'0 0.0
2017-Sep-21 05:29N 32°01' W 081°03'0 0.0
2017-Sep-21 04:59N 32°01' W 081°03'0 0.0
2017-Sep-21 04:29N 32°01' W 081°03'0 0.0
2017-Sep-21 03:59N 32°01' W 081°03'0 0.0
2017-Sep-21 03:23N 32°01' W 081°03'0 0.0
2017-Sep-21 02:53N 32°01' W 081°03'0 0.0
2017-Sep-21 02:29N 32°01' W 081°03'0 0.0
2017-Sep-21 01:59N 32°01' W 081°03'0 0.0
2017-Sep-21 01:29N 32°01' W 081°03'0 0.0
2017-Sep-21 00:59N 32°01' W 081°03'0 0.0
2017-Sep-21 00:29N 32°01' W 081°03'0 0.0
2017-Sep-20 23:59N 32°01' W 081°03'0 0.0
2017-Sep-20 23:23N 32°01' W 081°03'0 0.0
2017-Sep-20 22:56N 32°01' W 081°03'0 0.0
2017-Sep-20 22:29N 32°01' W 081°03'0 0.0
2017-Sep-20 21:59N 32°01' W 081°03'0 0.0
2017-Sep-20 21:29N 32°01' W 081°03'0 0.0
2017-Sep-20 20:47N 32°01' W 081°03'0 0.0
2017-Sep-20 20:23N 32°01' W 081°03'0 0.0
2017-Sep-20 19:53N 32°01' W 081°03'0 0.0
2017-Sep-20 19:29N 32°01' W 081°03'0 0.0
2017-Sep-20 18:53N 32°01' W 081°03'0 0.0
2017-Sep-20 18:29N 32°01' W 081°03'0 0.0
2017-Sep-20 17:59N 32°01' W 081°03'0 0.0
2017-Sep-20 17:29N 32°01' W 081°03'0 0.0
2017-Sep-20 16:59N 32°01' W 081°03'0 0.0
2017-Sep-20 16:29N 32°01' W 081°03'0 0.0
2017-Sep-20 15:59N 32°01' W 081°03'0 0.0
2017-Sep-20 15:29N 32°01' W 081°03'0 0.0
2017-Sep-20 14:53N 32°01' W 081°03'0 0.0
2017-Sep-20 13:59N 32°01' W 081°03'0 0.0
2017-Sep-20 13:23N 32°01' W 081°03'0 0.0
2017-Sep-20 12:59N 32°01' W 081°03'0 0.0
2017-Sep-20 12:23N 32°01' W 081°03'0 0.0
2017-Sep-20 11:59N 32°01' W 081°03'0 0.0
2017-Sep-20 11:29N 32°01' W 081°03'0 0.0
2017-Sep-20 10:59N 32°01' W 081°03'0 0.0
2017-Sep-20 10:29N 32°01' W 081°03'0 0.0
2017-Sep-20 09:59N 32°01' W 081°03'0 0.0
2017-Sep-20 09:29N 32°01' W 081°03'0 0.0
2017-Sep-20 08:47N 32°01' W 081°03'0 0.0
2017-Sep-20 08:29N 32°01' W 081°03'0 0.0
2017-Sep-20 07:41N 32°01' W 081°03'0 0.0
2017-Sep-20 07:29N 32°01' W 081°03'0 0.0
2017-Sep-20 06:59N 32°01' W 081°03'0 0.0
2017-Sep-20 06:29N 32°01' W 081°03'0 0.0
2017-Sep-20 05:59N 32°01' W 081°03'0 0.0
2017-Sep-20 05:29N 32°01' W 081°03'0 0.0
2017-Sep-20 04:59N 32°01' W 081°03'0 0.0
2017-Sep-20 04:29N 32°01' W 081°03'0 0.0
2017-Sep-20 03:59N 32°01' W 081°03'0 0.0
2017-Sep-20 03:29N 32°01' W 081°03'0 0.0
2017-Sep-20 02:59N 32°01' W 081°03'0 0.0
2017-Sep-20 02:23N 32°01' W 081°03'0 0.0
2017-Sep-20 01:53N 32°01' W 081°03'0 0.0
2017-Sep-20 01:29N 32°01' W 081°03'0 0.0
2017-Sep-20 00:59N 32°01' W 081°03'0 0.0
2017-Sep-20 00:23N 32°01' W 081°03'0 0.0
2017-Sep-19 23:59N 32°01' W 081°03'0 0.0
2017-Sep-19 23:23N 32°01' W 081°03'0 0.0
2017-Sep-19 22:53N 32°01' W 081°03'0 0.0
2017-Sep-19 22:29N 32°01' W 081°03'0 0.0
2017-Sep-19 21:59N 32°01' W 081°03'0 0.0
2017-Sep-19 21:29N 32°01' W 081°03'0 0.0
2017-Sep-19 20:59N 32°01' W 081°03'0 0.0
2017-Sep-19 20:29N 32°01' W 081°03'0 0.0
2017-Sep-19 19:59N 32°01' W 081°03'0 0.0
2017-Sep-19 19:29N 32°01' W 081°03'0 0.0
2017-Sep-19 18:53N 32°01' W 081°03'0 0.0
2017-Sep-19 18:29N 32°01' W 081°03'0 0.0
2017-Sep-19 17:59N 32°01' W 081°03'0 0.0
2017-Sep-19 17:29N 32°01' W 081°03'0 0.0
2017-Sep-19 16:59N 32°01' W 081°03'0 0.0
2017-Sep-19 16:29N 32°01' W 081°03'0 0.0
2017-Sep-19 15:59N 32°01' W 081°03'0 0.0
2017-Sep-19 15:29N 32°01' W 081°03'0 0.0
2017-Sep-19 14:59N 32°01' W 081°03'0 0.0
2017-Sep-19 13:53N 32°01' W 081°03'0 0.0
2017-Sep-19 13:29N 32°01' W 081°03'0 0.0
2017-Sep-19 12:53N 32°01' W 081°03'0 0.0
2017-Sep-19 11:59N 32°01' W 081°03'0 0.0
2017-Sep-19 11:17N 32°01' W 081°03'0 0.0
2017-Sep-19 10:53N 32°01' W 081°03'0 0.0
2017-Sep-19 10:29N 32°01' W 081°03'0 0.0
2017-Sep-19 09:29N 32°01' W 081°03'0 0.0
2017-Sep-19 08:59N 32°01' W 081°03'0 0.0
2017-Sep-19 08:29N 32°01' W 081°03'0 0.0
2017-Sep-19 07:53N 32°01' W 081°03'0 0.0
2017-Sep-19 07:29N 32°01' W 081°03'0 0.0
2017-Sep-19 06:59N 32°01' W 081°03'0 0.0
2017-Sep-19 06:29N 32°01' W 081°03'0 0.0
2017-Sep-19 05:53N 32°01' W 081°03'0 0.0
2017-Sep-19 05:29N 32°01' W 081°03'0 0.0
2017-Sep-19 04:59N 32°01' W 081°03'0 0.0
2017-Sep-19 04:29N 32°01' W 081°03'0 0.0
2017-Sep-19 03:59N 32°01' W 081°03'0 0.0
2017-Sep-19 03:23N 32°01' W 081°03'0 0.0
2017-Sep-19 02:59N 32°01' W 081°03'0 0.0
2017-Sep-19 02:29N 32°01' W 081°03'0 0.0
2017-Sep-19 01:59N 32°01' W 081°03'0 0.0
2017-Sep-19 01:29N 32°01' W 081°03'0 0.0
2017-Sep-19 00:59N 32°01' W 081°03'0 0.0
2017-Sep-19 00:29N 32°01' W 081°03'0 0.0
2017-Sep-18 23:47N 32°01' W 081°03'0 0.0
2017-Sep-18 23:29N 32°01' W 081°03'0 0.0
2017-Sep-18 22:53N 32°01' W 081°03'0 0.0
2017-Sep-18 22:29N 32°01' W 081°03'0 0.0
2017-Sep-18 21:59N 32°01' W 081°03'0 0.0
2017-Sep-18 21:29N 32°01' W 081°03'0 0.0
2017-Sep-18 20:59N 32°01' W 081°03'0 0.0
2017-Sep-18 20:23N 32°01' W 081°03'0 0.0
2017-Sep-18 19:59N 32°01' W 081°03'0 0.0
2017-Sep-18 19:29N 32°01' W 081°03'0 0.0
2017-Sep-18 18:59N 32°01' W 081°03'0 0.0
2017-Sep-18 18:29N 32°01' W 081°03'0 0.0
2017-Sep-18 17:59N 32°01' W 081°03'0 0.0
2017-Sep-18 17:29N 32°01' W 081°03'0 0.0
2017-Sep-18 16:59N 32°01' W 081°03'0 0.0
2017-Sep-18 16:29N 32°01' W 081°03'0 0.0
2017-Sep-18 15:53N 32°01' W 081°03'0 0.0
2017-Sep-18 15:29N 32°01' W 081°03'0 0.0
2017-Sep-18 14:59N 32°01' W 081°03'0 0.0
2017-Sep-18 14:29N 32°01' W 081°03'0 0.0
2017-Sep-18 13:59N 32°01' W 081°03'0 0.0
2017-Sep-18 13:23N 32°01' W 081°03'0 0.0
2017-Sep-18 12:59N 32°01' W 081°03'0 0.0
2017-Sep-18 12:29N 32°01' W 081°03'0 0.0
2017-Sep-18 11:59N 32°01' W 081°03'  
Track history (hours):
 
Tides and Currents Weather Stations Pressure Air Temp Water Temp Dewpoint Dewpoint Depression Visibility Wind Speed Wind Dir Waves Ship Positions

Pa-li-ne

Owner: Pa-Li-Ne LLC, norcross, GA. More information available from US FCC via Universal Licensing System and Coast Guard Vessel Documentation Center.

Last reported at 2017-Sep-28 11:51 UTC. Time now 2017-Oct-17 05:54 UTC.
Position N 31°54' W 080°39'.
Warning: this ship's position is 18 days out of date.

Length 29 m.

Type: Pleasure craft. MMSI: 338444000.

Date/timePositionNaut miles runAvg speedWind from/ knotsBaromVisibWave heightAir tempDewpointWater temp
2017-Sep-28 11:51N 31°54' W 080°39'513.2
2017-Sep-28 11:29N 31°57' W 080°43'613.4
2017-Sep-28 11:00N 32°02' W 080°49'6 1.2
2017-Sep-28 05:43N 32°08' W 080°49'0 0.0
2017-Sep-28 04:07N 32°08' W 080°49'0 0.0
2017-Sep-28 03:43N 32°08' W 080°49'0 0.0
2017-Sep-28 03:25N 32°08' W 080°49'0 0.0
2017-Sep-28 02:43N 32°08' W 080°49'  
2017-Sep-21 15:22N 32°09' W 080°51'7 7.8
2017-Sep-21 14:30N 32°05' W 080°57'4 8.5
2017-Sep-21 14:00N 32°04' W 081°02'2 4.7
2017-Sep-21 13:29N 32°01' W 081°03'0 0.0
2017-Sep-21 12:59N 32°01' W 081°03'0 0.0
2017-Sep-21 12:29N 32°01' W 081°03'0 0.0
2017-Sep-21 11:59N 32°01' W 081°03'0 0.0
2017-Sep-21 11:29N 32°01' W 081°03'0 0.0
2017-Sep-21 10:41N 32°01' W 081°03'0 0.0
2017-Sep-21 10:29N 32°01' W 081°03'0 0.0
2017-Sep-21 09:59N 32°01' W 081°03'0 0.0
2017-Sep-21 09:29N 32°01' W 081°03'0 0.0
2017-Sep-21 08:59N 32°01' W 081°03'0 0.0
2017-Sep-21 08:29N 32°01' W 081°03'0 0.0
2017-Sep-21 07:59N 32°01' W 081°03'0 0.0
2017-Sep-21 07:29N 32°01' W 081°03'0 0.0
2017-Sep-21 06:47N 32°01' W 081°03'0 0.0
2017-Sep-21 06:17N 32°01' W 081°03'0 0.0
2017-Sep-21 05:59N 32°01' W 081°03'0 0.0
2017-Sep-21 05:29N 32°01' W 081°03'0 0.0
2017-Sep-21 04:59N 32°01' W 081°03'0 0.0
2017-Sep-21 04:29N 32°01' W 081°03'0 0.0
2017-Sep-21 03:59N 32°01' W 081°03'0 0.0
2017-Sep-21 03:23N 32°01' W 081°03'0 0.0
2017-Sep-21 02:53N 32°01' W 081°03'0 0.0
2017-Sep-21 02:29N 32°01' W 081°03'0 0.0
2017-Sep-21 01:59N 32°01' W 081°03'0 0.0
2017-Sep-21 01:29N 32°01' W 081°03'0 0.0
2017-Sep-21 00:59N 32°01' W 081°03'0 0.0
2017-Sep-21 00:29N 32°01' W 081°03'0 0.0
2017-Sep-20 23:59N 32°01' W 081°03'0 0.0
2017-Sep-20 23:23N 32°01' W 081°03'0 0.0
2017-Sep-20 22:56N 32°01' W 081°03'0 0.0
2017-Sep-20 22:29N 32°01' W 081°03'0 0.0
2017-Sep-20 21:59N 32°01' W 081°03'0 0.0
2017-Sep-20 21:29N 32°01' W 081°03'0 0.0
2017-Sep-20 20:47N 32°01' W 081°03'0 0.0
2017-Sep-20 20:23N 32°01' W 081°03'0 0.0
2017-Sep-20 19:53N 32°01' W 081°03'0 0.0
2017-Sep-20 19:29N 32°01' W 081°03'0 0.0
2017-Sep-20 18:53N 32°01' W 081°03'0 0.0
2017-Sep-20 18:29N 32°01' W 081°03'0 0.0
2017-Sep-20 17:59N 32°01' W 081°03'0 0.0
2017-Sep-20 17:29N 32°01' W 081°03'0 0.0
2017-Sep-20 16:59N 32°01' W 081°03'0 0.0
2017-Sep-20 16:29N 32°01' W 081°03'0 0.0
2017-Sep-20 15:59N 32°01' W 081°03'0 0.0
2017-Sep-20 15:29N 32°01' W 081°03'0 0.0
2017-Sep-20 14:53N 32°01' W 081°03'0 0.0
2017-Sep-20 13:59N 32°01' W 081°03'0 0.0
2017-Sep-20 13:23N 32°01' W 081°03'0 0.0
2017-Sep-20 12:59N 32°01' W 081°03'0 0.0
2017-Sep-20 12:23N 32°01' W 081°03'0 0.0
2017-Sep-20 11:59N 32°01' W 081°03'0 0.0
2017-Sep-20 11:29N 32°01' W 081°03'0 0.0
2017-Sep-20 10:59N 32°01' W 081°03'0 0.0
2017-Sep-20 10:29N 32°01' W 081°03'0 0.0
2017-Sep-20 09:59N 32°01' W 081°03'0 0.0
2017-Sep-20 09:29N 32°01' W 081°03'0 0.0
2017-Sep-20 08:47N 32°01' W 081°03'0 0.0
2017-Sep-20 08:29N 32°01' W 081°03'0 0.0
2017-Sep-20 07:41N 32°01' W 081°03'0 0.0
2017-Sep-20 07:29N 32°01' W 081°03'0 0.0
2017-Sep-20 06:59N 32°01' W 081°03'0 0.0
2017-Sep-20 06:29N 32°01' W 081°03'0 0.0
2017-Sep-20 05:59N 32°01' W 081°03'0 0.0
2017-Sep-20 05:29N 32°01' W 081°03'0 0.0
2017-Sep-20 04:59N 32°01' W 081°03'0 0.0
2017-Sep-20 04:29N 32°01' W 081°03'0 0.0
2017-Sep-20 03:59N 32°01' W 081°03'0 0.0
2017-Sep-20 03:29N 32°01' W 081°03'0 0.0
2017-Sep-20 02:59N 32°01' W 081°03'0 0.0
2017-Sep-20 02:23N 32°01' W 081°03'0 0.0
2017-Sep-20 01:53N 32°01' W 081°03'0 0.0
2017-Sep-20 01:29N 32°01' W 081°03'0 0.0
2017-Sep-20 00:59N 32°01' W 081°03'0 0.0
2017-Sep-20 00:23N 32°01' W 081°03'0 0.0
2017-Sep-19 23:59N 32°01' W 081°03'0 0.0
2017-Sep-19 23:23N 32°01' W 081°03'0 0.0
2017-Sep-19 22:53N 32°01' W 081°03'0 0.0
2017-Sep-19 22:29N 32°01' W 081°03'0 0.0
2017-Sep-19 21:59N 32°01' W 081°03'0 0.0
2017-Sep-19 21:29N 32°01' W 081°03'0 0.0
2017-Sep-19 20:59N 32°01' W 081°03'0 0.0
2017-Sep-19 20:29N 32°01' W 081°03'0 0.0
2017-Sep-19 19:59N 32°01' W 081°03'0 0.0
2017-Sep-19 19:29N 32°01' W 081°03'0 0.0
2017-Sep-19 18:53N 32°01' W 081°03'0 0.0
2017-Sep-19 18:29N 32°01' W 081°03'0 0.0
2017-Sep-19 17:59N 32°01' W 081°03'0 0.0
2017-Sep-19 17:29N 32°01' W 081°03'0 0.0
2017-Sep-19 16:59N 32°01' W 081°03'0 0.0
2017-Sep-19 16:29N 32°01' W 081°03'0 0.0
2017-Sep-19 15:59N 32°01' W 081°03'0 0.0
2017-Sep-19 15:29N 32°01' W 081°03'0 0.0
2017-Sep-19 14:59N 32°01' W 081°03'0 0.0
2017-Sep-19 13:53N 32°01' W 081°03'0 0.0
2017-Sep-19 13:29N 32°01' W 081°03'0 0.0
2017-Sep-19 12:53N 32°01' W 081°03'0 0.0
2017-Sep-19 11:59N 32°01' W 081°03'0 0.0
2017-Sep-19 11:17N 32°01' W 081°03'0 0.0
2017-Sep-19 10:53N 32°01' W 081°03'0 0.0
2017-Sep-19 10:29N 32°01' W 081°03'0 0.0
2017-Sep-19 09:29N 32°01' W 081°03'0 0.0
2017-Sep-19 08:59N 32°01' W 081°03'0 0.0
2017-Sep-19 08:29N 32°01' W 081°03'0 0.0
2017-Sep-19 07:53N 32°01' W 081°03'0 0.0
2017-Sep-19 07:29N 32°01' W 081°03'0 0.0
2017-Sep-19 06:59N 32°01' W 081°03'0 0.0
2017-Sep-19 06:29N 32°01' W 081°03'0 0.0
2017-Sep-19 05:53N 32°01' W 081°03'0 0.0
2017-Sep-19 05:29N 32°01' W 081°03'0 0.0
2017-Sep-19 04:59N 32°01' W 081°03'0 0.0
2017-Sep-19 04:29N 32°01' W 081°03'0 0.0
2017-Sep-19 03:59N 32°01' W 081°03'0 0.0
2017-Sep-19 03:23N 32°01' W 081°03'0 0.0
2017-Sep-19 02:59N 32°01' W 081°03'0 0.0
2017-Sep-19 02:29N 32°01' W 081°03'0 0.0
2017-Sep-19 01:59N 32°01' W 081°03'0 0.0
2017-Sep-19 01:29N 32°01' W 081°03'0 0.0
2017-Sep-19 00:59N 32°01' W 081°03'0 0.0
2017-Sep-19 00:29N 32°01' W 081°03'0 0.0
2017-Sep-18 23:47N 32°01' W 081°03'0 0.0
2017-Sep-18 23:29N 32°01' W 081°03'0 0.0
2017-Sep-18 22:53N 32°01' W 081°03'0 0.0
2017-Sep-18 22:29N 32°01' W 081°03'0 0.0
2017-Sep-18 21:59N 32°01' W 081°03'0 0.0
2017-Sep-18 21:29N 32°01' W 081°03'0 0.0
2017-Sep-18 20:59N 32°01' W 081°03'0 0.0
2017-Sep-18 20:23N 32°01' W 081°03'0 0.0
2017-Sep-18 19:59N 32°01' W 081°03'0 0.0
2017-Sep-18 19:29N 32°01' W 081°03'0 0.0
2017-Sep-18 18:59N 32°01' W 081°03'0 0.0
2017-Sep-18 18:29N 32°01' W 081°03'0 0.0
2017-Sep-18 17:59N 32°01' W 081°03'0 0.0
2017-Sep-18 17:29N 32°01' W 081°03'0 0.0
2017-Sep-18 16:59N 32°01' W 081°03'0 0.0
2017-Sep-18 16:29N 32°01' W 081°03'0 0.0
2017-Sep-18 15:53N 32°01' W 081°03'0 0.0
2017-Sep-18 15:29N 32°01' W 081°03'0 0.0
2017-Sep-18 14:59N 32°01' W 081°03'0 0.0
2017-Sep-18 14:29N 32°01' W 081°03'0 0.0
2017-Sep-18 13:59N 32°01' W 081°03'0 0.0
2017-Sep-18 13:23N 32°01' W 081°03'0 0.0
2017-Sep-18 12:59N 32°01' W 081°03'0 0.0
2017-Sep-18 12:29N 32°01' W 081°03'0 0.0
2017-Sep-18 11:59N 32°01' W 081°03'  

Dump ship's entire track history